Time;durP1;ratioP1;P1;durP2;ratioP2;P2;SDS_P1;SDS_P2;PMS_P1;PMS_P2;Temp;Humidity;BMP_temperature;BMP_pressure;BME280_temperature;BME280_humidity;BME280_pressure;Samples;Min_cycle;Max_cycle;Signal;HPM_P1;HPM_P2
2022/10/22 00:01:35;;;;;;;35.28;17.67;;;;;;;17.54;63.78;100947.88;4973378;28;20033;-56
2022/10/22 00:04:01;;;;;;;38.10;17.25;;;;;;;17.46;64.60;100948.31;4973031;28;20046;-56
2022/10/22 00:06:27;;;;;;;32.42;16.42;;;;;;;17.28;66.07;100933.19;4973462;28;20027;-57
2022/10/22 00:08:54;;;;;;;33.83;15.82;;;;;;;17.34;65.59;100936.78;4973367;28;20031;-59
2022/10/22 00:11:20;;;;;;;40.72;16.92;;;;;;;17.28;65.95;100954.03;4955739;28;20022;-58
2022/10/22 00:13:47;;;;;;;37.95;16.90;;;;;;;17.38;65.25;100943.34;4972633;28;20054;-58
2022/10/22 00:16:13;;;;;;;33.80;17.55;;;;;;;17.54;64.84;100936.25;4973264;28;20111;-60
2022/10/22 00:18:40;;;;;;;34.20;16.70;;;;;;;17.49;64.93;100926.19;4985907;28;20032;-59
2022/10/22 00:21:06;;;;;;;36.63;17.52;;;;;;;17.36;65.59;100923.81;5010263;28;20044;-59
2022/10/22 00:23:33;;;;;;;41.47;19.35;;;;;;;17.26;65.68;100918.25;5007163;28;20065;-59
2022/10/22 00:26:00;;;;;;;34.00;17.02;;;;;;;17.21;65.79;100910.06;4992638;28;20050;-58
2022/10/22 00:28:26;;;;;;;38.47;17.98;;;;;;;17.14;66.11;100899.44;4989827;28;20097;-70
2022/10/22 00:30:56;;;;;;;33.95;16.73;;;;;;;17.05;66.92;100895.53;4990991;28;20162;-63
2022/10/22 00:33:23;;;;;;;33.50;17.45;;;;;;;17.15;66.41;100884.81;4990410;28;20117;-58
2022/10/22 00:35:49;;;;;;;35.42;16.63;;;;;;;16.95;66.82;100879.13;4992312;28;20040;-58
2022/10/22 00:38:15;;;;;;;33.55;15.70;;;;;;;16.84;67.67;100892.50;4992002;28;20038;-59
2022/10/22 00:40:41;;;;;;;29.88;16.05;;;;;;;16.86;67.67;100892.25;4992046;28;20049;-55
2022/10/22 00:43:16;;;;;;;37.88;16.35;;;;;;;16.64;68.31;100886.72;4991836;28;20034;-60
2022/10/22 00:45:43;;;;;;;32.30;15.73;;;;;;;16.63;68.59;100877.78;4990225;28;20028;-69
2022/10/22 00:48:33;;;;;;;31.20;15.80;;;;;;;16.55;68.71;100870.09;4990713;28;20038;-63
2022/10/22 00:51:03;;;;;;;30.33;14.30;;;;;;;16.36;69.55;100879.47;4977264;28;20478;-62
2022/10/22 00:53:34;;;;;;;30.48;14.63;;;;;;;16.40;69.72;100867.13;4991757;28;20398;-57
2022/10/22 00:56:00;;;;;;;27.98;13.55;;;;;;;16.44;69.42;100862.88;4991312;28;20033;-57
2022/10/22 00:58:30;;;;;;;31.38;15.27;;;;;;;16.36;69.84;100861.38;4992613;28;20110;-57
2022/10/22 01:00:56;;;;;;;31.63;14.38;;;;;;;16.39;69.84;100857.41;4977461;28;20503;-57
2022/10/22 01:03:23;;;;;;;32.28;15.20;;;;;;;16.36;69.88;100847.06;4973357;28;20031;-57
2022/10/22 01:06:02;;;;;;;30.08;14.73;;;;;;;16.27;70.77;100857.47;4988655;28;20364;-59
2022/10/22 01:08:31;;;;;;;31.77;15.48;;;;;;;16.51;70.05;100847.34;4993512;28;20359;-59
2022/10/22 01:11:13;;;;;;;32.45;16.15;;;;;;;16.34;70.73;100836.50;4990514;28;20487;-59
2022/10/22 01:13:58;;;;;;;35.25;15.60;;;;;;;16.06;72.23;100833.84;4991181;28;20053;-59
2022/10/22 01:16:35;;;;;;;29.48;14.30;;;;;;;15.97;73.19;100844.22;4979131;28;20375;-56
2022/10/22 01:19:38;;;;;;;28.48;13.32;;;;;;;16.03;72.91;100840.53;5004714;28;20112;-58
2022/10/22 01:22:15;;;;;;;27.95;12.25;;;;;;;15.93;73.57;100847.63;4994817;28;20036;-58
2022/10/22 01:24:56;;;;;;;38.08;13.90;;;;;;;15.92;73.57;100856.78;5002597;28;20030;-58
2022/10/22 01:27:56;;;;;;;31.15;13.30;;;;;;;15.97;73.60;100865.81;4988379;28;20030;-59
2022/10/22 01:30:24;;;;;;;29.17;11.65;;;;;;;15.91;73.69;100874.06;4992496;28;20061;-59
2022/10/22 01:32:53;;;;;;;32.72;13.82;;;;;;;15.79;73.90;100899.22;4991963;28;20037;-58
2022/10/22 01:35:30;;;;;;;29.35;12.43;;;;;;;15.83;73.50;100911.16;4991892;28;20617;-59
2022/10/22 01:38:00;;;;;;;30.10;12.73;;;;;;;15.87;72.96;100905.28;4991727;28;20068;-58
2022/10/22 01:40:28;;;;;;;25.73;11.65;;;;;;;15.73;73.92;100916.34;4986524;28;20483;-58
2022/10/22 01:43:12;;;;;;;24.20;11.15;;;;;;;15.69;73.95;100922.47;4983163;28;20124;-58
2022/10/22 01:45:47;;;;;;;30.67;11.85;;;;;;;15.62;73.38;100919.88;4986654;28;20018;-57
2022/10/22 01:48:38;;;;;;;25.30;10.75;;;;;;;15.53;73.32;100921.28;4981451;28;20053;-56
2022/10/22 01:51:25;;;;;;;25.50;10.73;;;;;;;15.57;73.38;100922.44;4991666;28;20035;-57
2022/10/22 01:54:17;;;;;;;21.23;9.80;;;;;;;15.46;73.44;100923.28;4990528;28;20034;-57
2022/10/22 01:57:33;;;;;;;21.23;10.80;;;;;;;15.32;74.27;100938.88;4988093;28;20038;-57
2022/10/22 02:00:08;;;;;;;24.00;10.27;;;;;;;15.50;73.00;100938.78;4965111;28;20507;-57
2022/10/22 02:02:43;;;;;;;28.77;10.00;;;;;;;15.23;74.10;100934.91;4993253;28;20120;-58
2022/10/22 02:05:13;;;;;;;26.08;11.20;;;;;;;15.14;74.66;100930.91;4995194;28;20497;-57
2022/10/22 02:07:48;;;;;;;20.90;10.20;;;;;;;15.10;74.90;100935.13;4993245;28;20069;-58
2022/10/22 02:10:16;;;;;;;28.77;11.40;;;;;;;14.92;75.76;100950.34;4993627;28;20109;-57
2022/10/22 02:12:47;;;;;;;28.10;10.45;;;;;;;14.91;75.86;100953.28;4994600;28;20042;-57
2022/10/22 02:15:16;;;;;;;18.40;9.82;;;;;;;15.09;75.39;100953.16;4993387;28;20067;-58
2022/10/22 02:17:45;;;;;;;23.00;10.75;;;;;;;15.17;75.00;100960.13;4994958;28;20022;-58
2022/10/22 02:20:32;;;;;;;19.50;8.90;;;;;;;15.10;75.49;100960.19;4993091;28;20034;-58
2022/10/22 02:22:59;;;;;;;22.27;9.00;;;;;;;15.10;75.40;100968.28;4994552;28;20105;-58
2022/10/22 02:25:30;;;;;;;18.65;8.77;;;;;;;15.16;75.16;100964.69;4993482;28;20399;-57
2022/10/22 02:28:06;;;;;;;20.55;8.75;;;;;;;15.01;75.47;100946.25;4994819;28;20125;-58
2022/10/22 02:30:35;;;;;;;18.60;9.02;;;;;;;14.82;76.48;100942.00;4992787;28;20041;-57
2022/10/22 02:33:22;;;;;;;21.23;9.80;;;;;;;15.01;75.68;100934.66;4994435;28;20022;-57
2022/10/22 02:35:50;;;;;;;23.20;9.30;;;;;;;14.94;75.82;100929.38;4978770;28;20386;-57
2022/10/22 02:38:18;;;;;;;22.33;9.40;;;;;;;14.87;76.63;100927.84;4974868;28;20463;-58
2022/10/22 02:40:44;;;;;;;21.40;9.43;;;;;;;14.79;76.61;100916.34;4985322;28;20569;-57
2022/10/22 02:43:10;;;;;;;20.88;9.55;;;;;;;14.84;76.35;100912.97;4984753;28;20463;-57
2022/10/22 02:45:37;;;;;;;22.83;9.20;;;;;;;14.82;76.48;100898.06;4994383;28;20026;-57
2022/10/22 02:48:03;;;;;;;19.85;8.90;;;;;;;14.72;76.35;100888.69;4993565;28;20030;-57
2022/10/22 02:50:30;;;;;;;18.48;9.10;;;;;;;14.81;76.45;100896.44;4994508;28;20053;-58
2022/10/22 02:52:56;;;;;;;20.05;9.02;;;;;;;14.69;77.11;100891.03;4991351;28;20026;-57
2022/10/22 02:55:22;;;;;;;24.27;8.18;;;;;;;14.82;76.57;100880.00;4994304;28;20061;-59
2022/10/22 02:57:48;;;;;;;18.70;8.57;;;;;;;14.75;76.92;100872.06;4992949;28;20081;-58
2022/10/22 03:00:15;;;;;;;21.02;8.82;;;;;;;14.80;76.91;100890.22;4993921;28;20035;-58
2022/10/22 03:02:41;;;;;;;22.52;8.50;;;;;;;14.82;76.95;100888.09;4992931;28;20104;-58
2022/10/22 03:05:08;;;;;;;20.02;8.57;;;;;;;14.76;77.29;100879.06;4993988;28;20030;-58
2022/10/22 03:07:34;;;;;;;20.00;9.10;;;;;;;14.68;77.48;100873.22;4992968;28;20038;-58
2022/10/22 03:10:00;;;;;;;18.45;8.55;;;;;;;14.81;77.33;100858.69;4994017;28;20030;-58
2022/10/22 03:12:26;;;;;;;14.77;8.35;;;;;;;14.82;77.06;100863.84;4991863;28;20125;-58
2022/10/22 03:14:53;;;;;;;18.20;8.50;;;;;;;14.75;77.60;100850.50;4993791;28;20076;-58
2022/10/22 03:17:19;;;;;;;16.98;7.90;;;;;;;14.86;76.99;100856.13;4992913;28;20398;-58
2022/10/22 03:19:45;;;;;;;16.73;7.00;;;;;;;14.83;77.88;100860.13;4976452;28;20030;-58
2022/10/22 03:22:25;;;;;;;17.25;8.23;;;;;;;14.73;78.53;100862.56;4992178;28;20061;-58
2022/10/22 03:24:57;;;;;;;19.00;7.82;;;;;;;14.69;78.72;100866.78;4974210;28;20035;-58
2022/10/22 03:27:24;;;;;;;15.43;7.68;;;;;;;14.73;78.14;100868.78;4974993;28;20058;-58
2022/10/22 03:29:51;;;;;;;19.90;8.25;;;;;;;14.84;77.95;100863.63;4991154;28;20031;-58
2022/10/22 03:32:18;;;;;;;16.23;7.57;;;;;;;14.70;78.50;100873.81;4992366;28;20464;-58
2022/10/22 03:34:44;;;;;;;19.08;8.52;;;;;;;14.75;78.56;100884.69;4991532;28;20080;-58
2022/10/22 03:37:11;;;;;;;18.92;8.07;;;;;;;14.80;78.38;100876.75;4991696;28;20523;-58
2022/10/22 03:39:38;;;;;;;25.90;9.75;;;;;;;14.73;78.73;100892.22;4992891;28;20139;-58
2022/10/22 03:42:05;;;;;;;26.52;8.30;;;;;;;14.67;78.79;100893.13;4992247;28;20037;-58
2022/10/22 03:44:32;;;;;;;19.73;8.52;;;;;;;14.71;78.52;100878.97;4993676;28;20065;-58
2022/10/22 03:46:58;;;;;;;19.58;8.88;;;;;;;14.68;78.47;100876.72;4992261;28;20023;-59
2022/10/22 03:49:25;;;;;;;16.48;7.88;;;;;;;14.82;77.94;100871.13;4993096;28;20510;-58
2022/10/22 03:51:51;;;;;;;21.02;8.35;;;;;;;14.86;77.22;100878.50;4992222;28;20031;-58
2022/10/22 03:54:18;;;;;;;14.07;7.72;;;;;;;14.69;78.00;100881.06;4992414;28;20037;-58
2022/10/22 03:56:44;;;;;;;12.88;7.57;;;;;;;14.74;77.65;100883.06;4991451;28;20066;-58
2022/10/22 03:59:12;;;;;;;17.27;7.95;;;;;;;14.62;78.21;100898.41;4993341;28;20030;-58
2022/10/22 04:01:38;;;;;;;19.23;7.45;;;;;;;14.69;77.61;100907.19;4992223;28;20483;-58
2022/10/22 04:04:04;;;;;;;14.75;7.10;;;;;;;14.70;77.51;100903.44;4992629;28;20040;-58
2022/10/22 04:06:31;;;;;;;15.90;7.57;;;;;;;14.74;77.62;100897.34;4992139;28;20475;-58
2022/10/22 04:08:58;;;;;;;20.13;8.02;;;;;;;14.70;77.76;100896.16;4992802;28;20038;-58
2022/10/22 04:11:24;;;;;;;24.67;8.25;;;;;;;14.67;77.82;100895.84;4990934;28;20026;-58
2022/10/22 04:13:50;;;;;;;16.63;7.90;;;;;;;14.57;78.54;100895.56;4992310;28;20050;-58
2022/10/22 04:16:19;;;;;;;15.30;7.63;;;;;;;14.55;78.36;100892.28;4990840;28;20106;-58
2022/10/22 04:18:46;;;;;;;13.32;7.38;;;;;;;14.54;78.35;100891.44;4973230;28;20022;-59
2022/10/22 04:21:14;;;;;;;20.05;7.93;;;;;;;14.58;78.15;100889.13;4977081;28;20027;-59
2022/10/22 04:23:46;;;;;;;14.18;8.10;;;;;;;14.62;77.89;100893.00;4992265;28;20036;-58
2022/10/22 04:26:12;;;;;;;13.68;7.00;;;;;;;14.45;78.63;100877.47;4991659;28;20102;-58
2022/10/22 04:28:39;;;;;;;18.63;7.88;;;;;;;14.61;78.07;100867.94;4990117;28;20566;-58
2022/10/22 04:31:13;;;;;;;12.65;6.88;;;;;;;14.69;77.12;100877.56;4992596;28;20430;-58
2022/10/22 04:33:40;;;;;;;14.13;7.10;;;;;;;14.58;77.52;100875.66;4991303;28;20109;-58
2022/10/22 04:36:11;;;;;;;15.52;7.50;;;;;;;14.49;77.76;100870.63;4992536;28;20028;-58
2022/10/22 04:38:38;;;;;;;13.80;7.80;;;;;;;14.66;76.86;100867.25;4991301;28;20026;-58
2022/10/22 04:41:10;;;;;;;19.33;8.95;;;;;;;14.59;77.33;100861.13;4992007;28;20103;-59
2022/10/22 04:43:36;;;;;;;15.80;8.55;;;;;;;14.53;77.71;100862.88;4991000;28;20423;-58
2022/10/22 04:46:02;;;;;;;17.40;9.60;;;;;;;14.61;77.75;100865.25;4991797;28;20030;-58
2022/10/22 04:48:28;;;;;;;19.02;9.63;;;;;;;14.46;78.45;100868.34;4990189;28;20041;-58
2022/10/22 04:50:57;;;;;;;18.55;9.10;;;;;;;14.56;78.18;100877.78;4992122;28;20038;-58
2022/10/22 04:53:24;;;;;;;18.90;9.65;;;;;;;14.46;79.11;100870.22;4990959;28;20026;-58
2022/10/22 04:55:50;;;;;;;21.20;10.07;;;;;;;14.44;79.45;100865.06;4992193;28;20493;-75
2022/10/22 04:58:16;;;;;;;38.70;10.25;;;;;;;14.53;79.20;100861.00;4992222;28;20019;-75
2022/10/22 05:00:42;;;;;;;21.65;9.57;;;;;;;14.43;80.02;100851.81;4988940;28;20026;-78
2022/10/22 05:03:08;;;;;;;23.30;10.30;;;;;;;14.44;80.14;100856.19;4991987;28;20029;-80
2022/10/22 05:05:34;;;;;;;23.75;10.73;;;;;;;14.47;80.28;100845.78;4991981;28;20516;-81
2022/10/22 05:08:00;;;;;;;22.60;10.40;;;;;;;14.52;80.37;100839.69;4994402;28;20104;-82
2022/10/22 05:10:27;;;;;;;21.67;9.82;;;;;;;14.44;80.20;100830.06;5006283;28;20027;-80
2022/10/22 05:12:53;;;;;;;16.75;10.18;;;;;;;14.37;79.93;100821.25;4993669;28;20551;-60
2022/10/22 05:15:19;;;;;;;25.75;10.23;;;;;;;14.36;80.43;100832.25;4990584;28;20391;-59
2022/10/22 05:17:45;;;;;;;19.70;9.10;;;;;;;14.49;79.86;100827.53;4992075;28;20054;-60
2022/10/22 05:20:12;;;;;;;18.30;9.43;;;;;;;14.53;79.40;100834.06;4991078;28;20034;-59
2022/10/22 05:22:38;;;;;;;23.50;9.13;;;;;;;14.48;79.00;100830.44;4991749;28;20039;-60
2022/10/22 05:25:04;;;;;;;23.63;9.50;;;;;;;14.47;79.27;100826.94;4991008;28;20364;-59
2022/10/22 05:27:30;;;;;;;23.95;9.43;;;;;;;14.43;79.47;100830.28;4991935;28;20088;-59
2022/10/22 05:29:57;;;;;;;20.50;8.73;;;;;;;14.44;79.55;100838.16;4989666;28;20030;-58
2022/10/22 05:32:23;;;;;;;19.77;9.57;;;;;;;14.30;80.13;100841.25;4991950;28;20034;-58
2022/10/22 05:34:49;;;;;;;24.67;10.07;;;;;;;14.25;80.17;100842.75;4992241;28;20034;-57
2022/10/22 05:37:15;;;;;;;21.90;9.57;;;;;;;14.27;80.57;100843.38;4995897;28;20418;-58
2022/10/22 05:39:41;;;;;;;22.20;8.90;;;;;;;14.27;80.61;100848.75;4994798;28;20240;-58
2022/10/22 05:42:07;;;;;;;22.25;9.45;;;;;;;14.29;80.19;100845.84;4993469;28;20229;-58
2022/10/22 05:44:34;;;;;;;22.45;9.45;;;;;;;14.37;79.85;100860.81;4995261;28;20037;-58
2022/10/22 05:47:00;;;;;;;25.40;9.70;;;;;;;14.25;80.12;100847.34;4994677;28;20109;-58
2022/10/22 05:49:26;;;;;;;21.48;8.80;;;;;;;14.30;80.00;100855.53;4993454;28;20034;-58
2022/10/22 05:51:52;;;;;;;24.77;9.27;;;;;;;14.24;80.02;100859.97;4995232;28;20034;-58
2022/10/22 05:54:21;;;;;;;18.33;8.20;;;;;;;14.27;79.88;100864.09;4976957;28;20383;-58
2022/10/22 05:56:47;;;;;;;21.20;9.10;;;;;;;14.28;80.20;100868.44;4995208;28;20030;-58
2022/10/22 05:59:13;;;;;;;18.27;8.50;;;;;;;14.29;79.70;100867.38;4994528;28;20101;-58
2022/10/22 06:01:40;;;;;;;19.55;8.02;;;;;;;14.22;80.17;100855.88;4994993;28;20031;-59
2022/10/22 06:04:10;;;;;;;22.30;8.40;;;;;;;14.28;79.86;100871.13;4994169;28;20467;-59
2022/10/22 06:06:41;;;;;;;18.35;8.23;;;;;;;14.29;79.79;100853.91;4995228;28;20030;-59
2022/10/22 06:09:28;;;;;;;24.95;7.93;;;;;;;14.38;79.33;100865.16;4993679;28;20105;-58
2022/10/22 06:11:55;;;;;;;21.95;7.35;;;;;;;14.26;79.40;100848.97;4994857;28;20506;-58
2022/10/22 06:14:22;;;;;;;27.50;7.03;;;;;;;14.22;79.21;100859.41;4994153;28;20118;-58
2022/10/22 06:16:48;;;;;;;18.55;6.43;;;;;;;14.37;78.06;100861.63;4995001;28;20525;-58
2022/10/22 06:19:16;;;;;;;18.58;5.50;;;;;;;14.36;77.83;100875.34;4991031;28;20066;-58
2022/10/22 06:21:43;;;;;;;20.20;5.45;;;;;;;14.37;77.85;100866.22;4994944;28;20475;-58
2022/10/22 06:24:11;;;;;;;23.92;5.68;;;;;;;14.29;78.04;100855.78;4994107;28;20112;-58
2022/10/22 06:26:38;;;;;;;22.38;6.05;;;;;;;14.31;78.24;100849.09;4994724;28;20045;-59
2022/10/22 06:29:04;;;;;;;28.30;6.43;;;;;;;14.32;78.30;100842.66;4986376;28;20065;-58
2022/10/22 06:31:35;;;;;;;21.10;5.70;;;;;;;14.31;77.81;100854.50;4975792;28;20538;-59
2022/10/22 06:34:07;;;;;;;26.38;6.47;;;;;;;14.40;77.41;100852.31;4989818;28;20034;-56
2022/10/22 06:36:33;;;;;;;24.27;5.57;;;;;;;14.38;76.79;100855.22;4995423;28;20037;-56
2022/10/22 06:38:59;;;;;;;20.85;5.30;;;;;;;14.44;76.63;100865.06;4994560;28;20109;-56
2022/10/22 06:41:26;;;;;;;18.10;5.35;;;;;;;14.40;76.79;100877.34;4993721;28;20035;-56
2022/10/22 06:43:53;;;;;;;20.73;5.35;;;;;;;14.44;76.46;100862.38;4994634;28;20030;-56
2022/10/22 06:46:21;;;;;;;19.58;4.88;;;;;;;14.31;76.93;100859.06;4991699;28;20562;-56
2022/10/22 06:48:55;;;;;;;17.08;4.38;;;;;;;14.31;76.88;100856.38;4990591;28;20049;-56
2022/10/22 06:51:22;;;;;;;24.80;5.23;;;;;;;14.45;76.07;100860.50;4993578;28;20039;-58
2022/10/22 06:53:49;;;;;;;20.98;4.80;;;;;;;14.43;75.39;100858.03;4994092;28;20026;-55
2022/10/22 06:56:20;;;;;;;17.10;4.70;;;;;;;14.38;75.95;100857.91;4992776;28;20049;-55
2022/10/22 06:58:48;;;;;;;22.73;5.00;;;;;;;14.41;75.58;100862.81;4994371;28;20104;-55
2022/10/22 07:01:16;;;;;;;21.83;4.88;;;;;;;14.37;75.52;100850.88;4992654;28;20031;-55
2022/10/22 07:03:42;;;;;;;20.40;4.60;;;;;;;14.40;75.30;100846.91;4993821;28;20378;-55
2022/10/22 07:06:11;;;;;;;21.25;5.28;;;;;;;14.35;75.49;100842.22;4992975;28;20031;-55
2022/10/22 07:08:39;;;;;;;20.58;4.75;;;;;;;14.38;75.45;100857.91;4992505;28;20030;-56
2022/10/22 07:11:41;;;;;;;25.98;4.60;;;;;;;14.43;75.54;100835.66;4993897;28;20105;-56
2022/10/22 07:14:08;;;;;;;17.45;5.07;;;;;;;14.29;76.28;100843.13;4952278;28;20082;-59
2022/10/22 07:16:34;;;;;;;16.60;4.43;;;;;;;14.37;76.19;100842.78;4993967;28;20030;-56
2022/10/22 07:19:01;;;;;;;21.85;5.13;;;;;;;14.45;76.43;100845.16;4992980;28;20019;-56
2022/10/22 07:21:28;;;;;;;21.92;4.20;;;;;;;14.43;76.82;100847.25;4993571;28;20102;-56
2022/10/22 07:23:55;;;;;;;21.58;4.82;;;;;;;14.47;77.14;100815.34;4992808;28;20030;-57
2022/10/22 07:26:24;;;;;;;16.95;4.30;;;;;;;14.41;77.55;100827.81;4993719;28;20029;-57
2022/10/22 07:28:50;;;;;;;19.88;4.20;;;;;;;14.37;78.48;100821.25;4986841;28;20042;-56
2022/10/22 07:31:18;;;;;;;23.05;5.25;;;;;;;14.38;79.05;100822.91;4993517;28;20057;-57
2022/10/22 07:33:44;;;;;;;20.58;4.57;;;;;;;14.48;79.39;100806.19;4992408;28;20410;-56
2022/10/22 07:36:16;;;;;;;17.02;4.60;;;;;;;14.56;79.31;100818.53;4991979;28;20109;-56
2022/10/22 07:38:48;;;;;;;22.08;4.45;;;;;;;14.50;79.42;100799.53;4993305;28;20080;-56
2022/10/22 07:41:15;;;;;;;23.52;5.60;;;;;;;14.46;79.60;100809.09;4992472;28;20058;-57
2022/10/22 07:43:42;;;;;;;18.48;4.70;;;;;;;14.55;79.24;100800.69;4993105;28;20031;-57
2022/10/22 07:46:08;;;;;;;28.10;4.85;;;;;;;14.50;79.66;100804.94;4991442;28;20392;-57
2022/10/22 07:48:36;;;;;;;26.63;5.00;;;;;;;14.54;79.92;100810.66;4992486;28;20037;-57
2022/10/22 07:51:03;;;;;;;19.48;4.65;;;;;;;14.51;80.77;100811.94;4992206;28;20383;-57
2022/10/22 07:53:29;;;;;;;19.52;3.92;;;;;;;14.64;80.55;100837.84;4973648;28;20042;-56
2022/10/22 07:55:55;;;;;;;30.00;5.18;;;;;;;14.57;80.83;100820.16;4973881;28;20455;-56
2022/10/22 07:58:22;;;;;;;22.52;4.93;;;;;;;14.57;81.68;100810.19;4991264;28;20493;-56
2022/10/22 08:00:50;;;;;;;24.75;5.10;;;;;;;14.57;81.54;100822.84;4992881;28;20069;-56
2022/10/22 08:03:17;;;;;;;19.67;5.05;;;;;;;14.69;81.56;100829.06;4991791;28;20632;-56
2022/10/22 08:05:44;;;;;;;21.83;5.22;;;;;;;14.68;81.96;100816.66;4992954;28;20030;-57
2022/10/22 08:08:12;;;;;;;20.08;4.10;;;;;;;14.68;81.78;100805.88;4991922;28;20621;-56
2022/10/22 08:10:38;;;;;;;23.00;4.55;;;;;;;14.68;82.11;100795.09;4992696;28;20046;-56
2022/10/22 08:13:05;;;;;;;27.90;5.25;;;;;;;14.64;82.41;100799.31;4989660;28;20053;-57
2022/10/22 08:15:31;;;;;;;23.15;4.75;;;;;;;14.59;82.80;100786.53;4992859;28;20176;-56
2022/10/22 08:17:57;;;;;;;19.38;4.40;;;;;;;14.61;82.96;100789.00;4991848;28;20033;-57
2022/10/22 08:20:24;;;;;;;27.75;5.00;;;;;;;14.60;83.31;100771.19;4992608;28;20030;-56
2022/10/22 08:22:50;;;;;;;22.02;4.50;;;;;;;14.58;83.48;100773.31;4991394;28;20046;-57
2022/10/22 08:25:17;;;;;;;18.77;3.90;;;;;;;14.59;83.67;100769.56;4992823;28;20116;-56
2022/10/22 08:27:44;;;;;;;16.38;4.22;;;;;;;14.63;83.90;100766.16;4990328;28;20034;-57
2022/10/22 08:30:11;;;;;;;25.42;4.97;;;;;;;14.76;83.53;100778.56;4992115;28;20022;-57
2022/10/22 08:32:38;;;;;;;26.98;4.88;;;;;;;14.69;83.93;100765.22;4990812;28;20038;-57
2022/10/22 08:35:04;;;;;;;29.42;4.63;;;;;;;14.59;84.29;100780.31;4992658;28;20056;-56
2022/10/22 08:37:31;;;;;;;17.23;4.07;;;;;;;14.71;84.10;100768.53;4991509;28;20034;-57
2022/10/22 08:39:57;;;;;;;21.23;4.25;;;;;;;14.68;84.38;100763.59;4992400;28;20034;-57
2022/10/22 08:42:45;;;;;;;28.25;5.50;;;;;;;14.45;85.37;100772.44;4990368;28;20614;-57
2022/10/22 08:45:24;;;;;;;21.27;4.82;;;;;;;14.59;85.13;100764.16;4992493;28;20109;-57
2022/10/22 08:48:37;;;;;;;19.52;4.43;;;;;;;14.61;84.85;100754.00;4991089;28;20109;-57
2022/10/22 08:51:03;;;;;;;18.25;4.07;;;;;;;14.53;85.11;100768.63;4991047;28;20135;-57
2022/10/22 08:54:03;;;;;;;18.25;4.43;;;;;;;14.61;85.22;100759.38;4991984;28;20029;-57
2022/10/22 08:56:31;;;;;;;16.55;4.50;;;;;;;14.40;86.33;100766.94;4991196;28;20065;-57
2022/10/22 08:59:24;;;;;;;21.25;4.20;;;;;;;14.49;86.32;100762.03;4992391;28;20033;-57
2022/10/22 09:01:53;;;;;;;15.88;3.83;;;;;;;14.53;86.39;100747.06;4964404;28;20059;-57
2022/10/22 09:04:24;;;;;;;19.42;4.10;;;;;;;14.49;87.14;100751.28;4972761;28;20055;-57
2022/10/22 09:06:52;;;;;;;26.38;4.32;;;;;;;14.48;87.92;100742.38;4988943;28;20042;-57
2022/10/22 09:09:20;;;;;;;22.50;3.55;;;;;;;14.53;88.17;100733.59;4991806;28;20030;-57
2022/10/22 09:11:50;;;;;;;22.52;3.83;;;;;;;14.52;89.03;100724.72;4993500;28;20038;-57
2022/10/22 09:14:21;;;;;;;18.20;4.50;;;;;;;14.66;89.30;100728.00;4996125;28;20034;-56
2022/10/22 09:17:15;;;;;;;22.10;4.40;;;;;;;14.73;89.09;100728.69;4996184;28;20125;-57
2022/10/22 09:20:03;;;;;;;22.67;3.92;;;;;;;14.74;89.82;100737.56;4995597;28;20030;-57
2022/10/22 09:22:58;;;;;;;21.13;3.85;;;;;;;14.81;89.61;100727.50;4996174;28;20050;-57
2022/10/22 09:25:31;;;;;;;18.77;4.90;;;;;;;14.86;89.40;100745.66;4995143;28;20041;-56
2022/10/22 09:27:57;;;;;;;19.90;4.15;;;;;;;14.86;89.85;100759.13;4974936;28;20402;-57
2022/10/22 09:30:27;;;;;;;16.13;3.92;;;;;;;14.92;89.93;100756.28;4982913;28;20027;-58
2022/10/22 09:33:05;;;;;;;18.42;4.35;;;;;;;14.85;89.75;100744.00;4995379;28;20097;-57
2022/10/22 09:35:53;;;;;;;16.90;3.72;;;;;;;14.88;90.03;100754.31;4994013;28;20022;-57
2022/10/22 09:38:23;;;;;;;13.00;2.97;;;;;;;14.88;89.99;100765.09;4995627;28;20034;-57
2022/10/22 09:40:52;;;;;;;9.18;2.90;;;;;;;14.83;90.03;100781.16;4994547;28;20117;-57
2022/10/22 09:43:19;;;;;;;13.80;3.33;;;;;;;14.93;89.41;100782.19;4995257;28;20034;-57
2022/10/22 09:45:46;;;;;;;8.68;2.60;;;;;;;14.90;89.98;100785.38;4994633;28;20029;-57
2022/10/22 09:48:25;;;;;;;11.13;2.72;;;;;;;14.84;90.37;100772.03;4995201;28;20546;-57
2022/10/22 09:51:12;;;;;;;7.28;2.25;;;;;;;14.78;90.57;100776.47;4994022;28;20105;-57
2022/10/22 09:53:43;;;;;;;9.13;1.90;;;;;;;14.83;90.56;100771.19;4995361;28;20042;-58
2022/10/22 09:56:25;;;;;;;7.63;1.60;;;;;;;14.81;90.00;100765.22;4994893;28;20018;-57
2022/10/22 09:58:51;;;;;;;12.95;1.95;;;;;;;14.84;90.00;100764.75;4995271;28;20030;-57
2022/10/22 10:01:25;;;;;;;8.77;2.15;;;;;;;14.92;89.60;100752.78;4993548;28;20119;-57
2022/10/22 10:03:52;;;;;;;5.90;1.70;;;;;;;14.74;89.94;100730.31;4995366;28;20030;-57
2022/10/22 10:06:22;;;;;;;8.07;1.88;;;;;;;14.83;89.84;100703.03;4991461;28;20037;-57
2022/10/22 10:08:49;;;;;;;10.05;1.85;;;;;;;14.78;90.16;100701.03;4995041;28;20042;-57
2022/10/22 10:11:34;;;;;;;5.47;1.73;;;;;;;14.82;89.85;100683.31;4992903;28;20049;-57
2022/10/22 10:14:21;;;;;;;8.20;1.77;;;;;;;14.79;89.83;100691.88;4994969;28;20120;-57
2022/10/22 10:17:12;;;;;;;6.47;1.75;;;;;;;14.87;89.82;100718.44;4994783;28;20057;-57
2022/10/22 10:19:53;;;;;;;7.35;1.95;;;;;;;14.90;89.05;100760.28;4994018;28;20045;-57
2022/10/22 10:22:29;;;;;;;8.15;1.70;;;;;;;14.89;88.90;100750.56;4992824;28;20030;-56
2022/10/22 10:25:25;;;;;;;11.13;2.13;;;;;;;14.87;88.49;100721.16;4994805;28;20109;-57
2022/10/22 10:27:59;;;;;;;8.07;1.60;;;;;;;14.93;87.97;100730.16;4993370;28;20043;-57
2022/10/22 10:30:26;;;;;;;6.85;2.28;;;;;;;14.79;88.58;100708.06;4994888;28;20037;-57
2022/10/22 10:33:24;;;;;;;8.93;2.22;;;;;;;14.75;89.58;100717.66;4993220;28;20110;-57
2022/10/22 10:36:19;;;;;;;9.05;2.65;;;;;;;14.85;88.44;100695.50;4993282;28;20046;-58
2022/10/22 10:38:56;;;;;;;8.13;2.50;;;;;;;15.03;87.71;100695.34;4994966;28;20030;-57
2022/10/22 10:41:27;;;;;;;9.07;2.70;;;;;;;15.00;87.38;100709.31;4993509;28;20125;-57
2022/10/22 10:44:13;;;;;;;7.68;2.60;;;;;;;14.91;87.79;100692.69;4994510;28;20080;-57
2022/10/22 10:47:05;;;;;;;7.70;3.00;;;;;;;14.87;87.88;100707.66;4993636;28;20034;-57
2022/10/22 10:49:35;;;;;;;8.18;2.53;;;;;;;14.71;89.17;100689.53;4994383;28;20112;-57
2022/10/22 10:52:04;;;;;;;7.63;2.72;;;;;;;14.77;89.36;100686.75;4993314;28;20058;-57
2022/10/22 10:55:00;;;;;;;8.57;2.55;;;;;;;14.85;89.14;100699.00;4992461;28;20027;-57
2022/10/22 10:57:50;;;;;;;9.48;2.72;;;;;;;14.92;88.48;100686.22;4924640;28;20507;-57
2022/10/22 11:00:19;;;;;;;5.35;2.33;;;;;;;14.85;88.74;100685.53;4993395;28;20034;-57
2022/10/22 11:03:02;;;;;;;6.50;2.58;;;;;;;14.81;89.22;100683.56;4992884;28;20033;-57
2022/10/22 11:05:31;;;;;;;5.90;1.92;;;;;;;14.91;88.70;100665.72;4994235;28;20045;-57
2022/10/22 11:08:10;;;;;;;6.75;2.42;;;;;;;14.73;89.09;100650.53;4992316;28;20034;-57
2022/10/22 11:10:47;;;;;;;7.65;2.15;;;;;;;14.92;88.41;100659.28;4993822;28;20081;-57
2022/10/22 11:13:38;;;;;;;5.80;1.70;;;;;;;14.92;88.38;100656.56;4992769;28;20086;-57
2022/10/22 11:16:19;;;;;;;3.10;1.50;;;;;;;14.88;88.17;100659.97;4994104;28;20030;-57
2022/10/22 11:19:02;;;;;;;5.75;1.40;;;;;;;14.93;87.88;100650.13;4992657;28;20458;-57
2022/10/22 11:21:59;;;;;;;5.63;1.40;;;;;;;15.13;86.54;100662.38;4993805;28;20035;-57
2022/10/22 11:24:52;;;;;;;4.15;1.30;;;;;;;15.05;86.61;100661.72;4987333;28;20070;-57
2022/10/22 11:27:33;;;;;;;5.25;1.40;;;;;;;15.10;86.32;100677.13;4944339;28;20072;-57
2022/10/22 11:30:10;;;;;;;4.53;1.02;;;;;;;15.08;86.27;100681.16;4992946;28;20027;-57
2022/10/22 11:32:38;;;;;;;3.85;1.25;;;;;;;14.99;86.47;100662.66;4992802;28;20498;-57
2022/10/22 11:35:11;;;;;;;3.70;1.40;;;;;;;14.93;86.54;100663.59;4991965;28;20382;-57
2022/10/22 11:37:38;;;;;;;7.65;1.40;;;;;;;15.04;85.91;100660.03;4993055;28;20026;-57